createdAt,value
2017-11-18T00:00:46.465Z,3.53
2017-11-18T00:01:55.094Z,3.55
2017-11-18T00:03:03.709Z,3.68
2017-11-18T00:04:12.338Z,3.59
2017-11-18T00:05:20.958Z,3.66
2017-11-18T00:06:29.850Z,3.55
2017-11-18T00:07:38.472Z,3.61
2017-11-18T00:08:47.092Z,3.55
2017-11-18T00:09:55.996Z,3.56
2017-11-18T00:11:04.621Z,3.67
2017-11-18T00:12:13.504Z,3.59
2017-11-18T00:13:22.131Z,3.66
2017-11-18T00:14:30.758Z,3.64
2017-11-18T00:15:39.371Z,3.7
2017-11-18T00:16:47.998Z,3.67
2017-11-18T00:17:56.621Z,3.74
2017-11-18T00:19:05.244Z,3.64
2017-11-18T00:20:13.870Z,3.66
2017-11-18T00:21:22.489Z,3.59
2017-11-18T00:22:31.113Z,3.64
2017-11-18T00:23:39.737Z,3.52
2017-11-18T00:24:48.352Z,3.46
2017-11-18T00:25:56.985Z,3.52
2017-11-18T00:27:05.604Z,3.5
2017-11-18T00:28:14.229Z,3.58
2017-11-18T00:29:22.852Z,3.56
2017-11-18T00:30:31.466Z,3.53
2017-11-18T00:31:40.090Z,3.43
2017-11-18T00:32:48.712Z,3.43
2017-11-18T00:33:57.341Z,3.59
2017-11-18T00:35:05.961Z,3.5
2017-11-18T00:36:14.581Z,3.36
2017-11-18T00:37:23.213Z,3.34
2017-11-18T00:38:32.103Z,3.5
2017-11-18T00:39:40.987Z,3.34
2017-11-18T00:40:49.612Z,3.45
2017-11-18T00:41:58.241Z,3.46
2017-11-18T00:43:06.857Z,3.48
2017-11-18T00:44:15.480Z,3.46
2017-11-18T00:45:24.105Z,3.4
2017-11-18T00:46:32.727Z,3.37
2017-11-18T00:47:41.358Z,3.43
2017-11-18T00:48:49.976Z,3.36
2017-11-18T00:49:58.605Z,3.49
2017-11-18T00:51:07.501Z,3.45
2017-11-18T00:52:16.116Z,3.46
2017-11-18T00:53:24.735Z,3.36
2017-11-18T00:54:33.362Z,3.34
2017-11-18T00:55:41.977Z,3.34
2017-11-18T00:56:50.598Z,3.41
2017-11-18T00:57:59.229Z,3.33
2017-11-18T00:59:07.851Z,3.34
2017-11-18T01:00:17.004Z,3.4
2017-11-18T01:01:25.628Z,3.41
2017-11-18T01:02:34.244Z,3.45
2017-11-18T01:03:42.900Z,3.46
2017-11-18T01:04:51.489Z,3.48
2017-11-18T01:06:00.108Z,3.52
2017-11-18T01:07:08.741Z,3.53
2017-11-18T01:08:17.361Z,3.52
2017-11-18T01:09:25.984Z,3.66
2017-11-18T01:10:34.613Z,3.63
2017-11-18T01:11:43.262Z,3.61
2017-11-18T01:12:51.861Z,3.7
2017-11-18T01:14:00.490Z,3.74
2017-11-18T01:15:09.111Z,3.7
2017-11-18T01:16:17.727Z,3.84
2017-11-18T01:17:26.350Z,3.82
2017-11-18T01:18:34.967Z,3.76
2017-11-18T01:19:43.597Z,3.81
2017-11-18T01:20:52.216Z,3.88
2017-11-18T01:22:00.837Z,3.95
2017-11-18T01:23:09.458Z,3.89
2017-11-18T01:24:18.074Z,4.02
2017-11-18T01:25:26.702Z,4.04
2017-11-18T01:26:35.322Z,4.04
2017-11-18T01:27:43.943Z,4.09
2017-11-18T01:28:52.571Z,4.13
2017-11-18T01:30:01.192Z,4.13
2017-11-18T01:31:09.814Z,4.2
2017-11-18T01:32:18.437Z,4.24
2017-11-18T01:33:27.056Z,4.14
2017-11-18T01:34:35.686Z,4.25
2017-11-18T01:35:44.309Z,4.27
2017-11-18T01:36:52.928Z,4.31
2017-11-18T01:38:01.558Z,4.28
2017-11-18T01:39:10.182Z,4.28
2017-11-18T01:40:18.801Z,4.34
2017-11-18T01:41:27.428Z,4.34
2017-11-18T01:42:36.053Z,4.36
2017-11-18T01:43:44.936Z,4.36
2017-11-18T01:44:53.828Z,4.38
2017-11-18T01:46:02.444Z,4.39
2017-11-18T01:47:11.363Z,4.36
2017-11-18T01:48:19.965Z,4.38
2017-11-18T01:49:28.589Z,4.46
2017-11-18T01:50:37.208Z,4.42
2017-11-18T01:51:45.838Z,4.48
2017-11-18T01:52:54.449Z,4.46
2017-11-18T01:54:03.074Z,4.39
2017-11-18T01:55:11.697Z,4.45
2017-11-18T01:56:20.311Z,4.45
2017-11-18T01:57:28.937Z,4.48
2017-11-18T01:58:37.831Z,4.53
2017-11-18T01:59:46.453Z,4.43
2017-11-18T02:00:55.345Z,4.48
2017-11-18T02:02:03.963Z,4.49
2017-11-18T02:03:12.584Z,4.52
2017-11-18T02:04:21.209Z,4.46
2017-11-18T02:05:29.822Z,4.56
2017-11-18T02:06:38.447Z,4.52
2017-11-18T02:07:47.071Z,4.58
2017-11-18T02:08:55.691Z,4.53
2017-11-18T02:10:04.317Z,4.53
2017-11-18T02:11:12.946Z,4.58
2017-11-18T02:12:21.568Z,4.63
2017-11-18T02:13:30.186Z,4.52
2017-11-18T02:14:38.811Z,4.64
2017-11-18T02:15:47.429Z,4.66
2017-11-18T02:16:56.053Z,4.64
2017-11-18T02:18:04.671Z,4.63
2017-11-18T02:19:13.293Z,4.68
2017-11-18T02:20:21.920Z,4.66
2017-11-18T02:21:30.544Z,4.67
2017-11-18T02:22:39.170Z,4.64
2017-11-18T02:23:47.788Z,4.64
2017-11-18T02:24:56.412Z,4.66
2017-11-18T02:26:05.038Z,4.67
2017-11-18T02:27:13.957Z,4.68
2017-11-18T02:28:22.579Z,4.67
2017-11-18T02:29:31.211Z,4.74
2017-11-18T02:30:40.103Z,4.68
2017-11-18T02:31:48.725Z,4.64
2017-11-18T02:32:57.343Z,4.75
2017-11-18T02:34:05.966Z,4.74
2017-11-18T02:35:14.602Z,4.75
2017-11-18T02:36:23.221Z,4.79
2017-11-18T02:37:32.123Z,4.74
2017-11-18T02:38:40.754Z,4.75
2017-11-18T02:39:49.377Z,4.78
2017-11-18T02:40:58.271Z,4.76
2017-11-18T02:42:06.903Z,4.82
2017-11-18T02:43:15.521Z,4.76
2017-11-18T02:44:24.145Z,4.94
2017-11-18T02:45:33.044Z,4.79
2017-11-18T02:46:41.673Z,4.78
2017-11-18T02:47:50.295Z,4.79
2017-11-18T02:48:58.916Z,4.86
2017-11-18T02:50:07.537Z,4.87
2017-11-18T02:51:16.166Z,4.87
2017-11-18T02:52:24.781Z,4.83
2017-11-18T02:53:33.406Z,4.87
2017-11-18T02:54:42.030Z,4.84
2017-11-18T02:55:50.642Z,4.89
2017-11-18T02:56:59.271Z,4.83
2017-11-18T02:58:07.891Z,4.87
2017-11-18T02:59:16.522Z,4.82
2017-11-18T03:00:25.138Z,4.87
2017-11-18T03:01:34.027Z,4.95
2017-11-18T03:02:42.651Z,4.83
2017-11-18T03:03:51.275Z,4.84
2017-11-18T03:04:59.900Z,4.86
2017-11-18T03:06:08.532Z,4.86
2017-11-18T03:07:17.152Z,4.84
2017-11-18T03:08:25.775Z,4.82
2017-11-18T03:09:34.405Z,4.84
2017-11-18T03:10:43.028Z,4.79
2017-11-18T03:11:51.648Z,4.87
2017-11-18T03:13:00.272Z,4.84
2017-11-18T03:14:08.888Z,4.86
2017-11-18T03:15:17.520Z,4.92
2017-11-18T03:16:26.141Z,4.9
2017-11-18T03:17:35.026Z,4.89
2017-11-18T03:18:43.659Z,4.92
2017-11-18T03:19:52.276Z,4.87
2017-11-18T03:21:00.899Z,4.95
2017-11-18T03:22:09.520Z,4.94
2017-11-18T03:23:18.137Z,4.94
2017-11-18T03:24:26.767Z,4.92
2017-11-18T03:25:35.386Z,4.97
2017-11-18T03:26:44.004Z,5.04
2017-11-18T03:27:52.636Z,4.94
2017-11-18T03:29:01.515Z,4.97
2017-11-18T03:30:10.150Z,5
2017-11-18T03:31:18.774Z,4.98
2017-11-18T03:32:27.399Z,4.94
2017-11-18T03:33:36.026Z,5.04
2017-11-18T03:34:44.647Z,5.02
2017-11-18T03:35:53.266Z,5
2017-11-18T03:37:01.896Z,4.98
2017-11-18T03:38:10.517Z,5
2017-11-18T03:39:19.133Z,5.01
2017-11-18T03:40:27.756Z,5.02
2017-11-18T03:41:36.381Z,5.01
2017-11-18T03:42:44.997Z,4.97
2017-11-18T03:43:53.622Z,5
2017-11-18T03:45:02.245Z,5.08
2017-11-18T03:46:10.875Z,5.05
2017-11-18T03:47:19.496Z,5.07
2017-11-18T03:48:28.382Z,5.05
2017-11-18T03:49:37.004Z,5.02
2017-11-18T03:50:45.635Z,5.16
2017-11-18T03:51:54.248Z,5.08
2017-11-18T03:53:02.877Z,5.13
2017-11-18T03:54:11.503Z,5.12
2017-11-18T03:55:20.119Z,5.07
2017-11-18T03:56:28.749Z,5.12
2017-11-18T03:57:37.377Z,5.18
2017-11-18T03:58:45.997Z,5.16
2017-11-18T03:59:54.624Z,5.16
2017-11-18T04:01:03.236Z,5.19
2017-11-18T04:02:11.860Z,5.15
2017-11-18T04:03:20.485Z,5.15
2017-11-18T04:04:29.104Z,5.15
2017-11-18T04:05:37.730Z,5.12
2017-11-18T04:06:46.354Z,5.25
2017-11-18T04:07:54.975Z,5.18
2017-11-18T04:09:03.598Z,5.12
2017-11-18T04:10:12.230Z,5.19
2017-11-18T04:11:21.380Z,5.2
2017-11-18T04:12:30.005Z,5.31
2017-11-18T04:13:38.620Z,5.37
2017-11-18T04:14:47.242Z,5.33
2017-11-18T04:15:55.873Z,5.29
2017-11-18T04:17:04.496Z,5.36
2017-11-18T04:18:13.120Z,5.33
2017-11-18T04:19:21.746Z,5.34
2017-11-18T04:20:30.366Z,5.33
2017-11-18T04:21:38.993Z,5.34
2017-11-18T04:22:47.612Z,5.31
2017-11-18T04:23:56.232Z,5.37
2017-11-18T04:25:04.859Z,5.31
2017-11-18T04:26:13.481Z,5.34
2017-11-18T04:27:22.111Z,5.34
2017-11-18T04:28:30.991Z,5.36
2017-11-18T04:29:39.621Z,5.34
2017-11-18T04:30:48.242Z,5.37
2017-11-18T04:31:56.859Z,5.38
2017-11-18T04:33:05.484Z,5.33
2017-11-18T04:34:14.107Z,5.37
2017-11-18T04:35:22.734Z,5.38
2017-11-18T04:36:31.342Z,5.37
2017-11-18T04:37:39.972Z,5.4
2017-11-18T04:38:48.594Z,5.37
2017-11-18T04:39:57.213Z,5.38
2017-11-18T04:41:05.847Z,5.4
2017-11-18T04:42:14.728Z,5.4
2017-11-18T04:43:23.628Z,5.43
2017-11-18T04:44:32.251Z,5.38
2017-11-18T04:45:40.872Z,5.38
2017-11-18T04:46:49.501Z,5.34
2017-11-18T04:47:58.123Z,5.41
2017-11-18T04:49:06.745Z,5.37
2017-11-18T04:50:15.378Z,5.4
2017-11-18T04:51:23.995Z,5.44
2017-11-18T04:52:32.614Z,5.47
2017-11-18T04:53:41.236Z,5.51
2017-11-18T04:54:49.863Z,5.51
2017-11-18T04:55:58.745Z,5.41
2017-11-18T04:57:07.368Z,5.51
2017-11-18T04:58:15.987Z,5.46
2017-11-18T04:59:24.616Z,5.43
2017-11-18T05:00:33.235Z,5.43
2017-11-18T05:01:41.857Z,5.44
2017-11-18T05:02:50.751Z,5.47
2017-11-18T05:03:59.383Z,5.49
2017-11-18T05:05:08.001Z,5.4
2017-11-18T05:06:16.629Z,5.46
2017-11-18T05:07:25.259Z,5.46
2017-11-18T05:08:34.150Z,5.46
2017-11-18T05:09:42.774Z,5.47
2017-11-18T05:10:51.401Z,5.4
2017-11-18T05:12:00.025Z,5.46
2017-11-18T05:13:08.654Z,5.44
2017-11-18T05:14:17.272Z,5.41
2017-11-18T05:15:25.898Z,5.51
2017-11-18T05:16:34.520Z,5.44
2017-11-18T05:17:43.667Z,5.49
2017-11-18T05:18:52.298Z,5.47
2017-11-18T05:20:01.184Z,5.51
2017-11-18T05:21:09.808Z,5.41
2017-11-18T05:22:18.443Z,5.44
2017-11-18T05:23:27.064Z,5.43
2017-11-18T05:24:35.688Z,5.44
2017-11-18T05:25:44.305Z,5.52
2017-11-18T05:26:52.936Z,5.44
2017-11-18T05:28:01.557Z,5.43
2017-11-18T05:29:10.172Z,5.51
2017-11-18T05:30:19.100Z,5.4
2017-11-18T05:31:27.728Z,5.44
2017-11-18T05:32:36.347Z,5.44
2017-11-18T05:33:44.969Z,5.52
2017-11-18T05:34:53.602Z,5.38
2017-11-18T05:36:02.228Z,5.44
2017-11-18T05:37:10.844Z,5.54
2017-11-18T05:38:19.476Z,5.44
2017-11-18T05:39:28.100Z,5.54
2017-11-18T05:40:36.998Z,5.47
2017-11-18T05:41:45.614Z,5.47
2017-11-18T05:42:54.506Z,5.44
2017-11-18T05:44:03.134Z,5.44
2017-11-18T05:45:11.750Z,5.52
2017-11-18T05:46:20.380Z,5.51
2017-11-18T05:47:29.006Z,5.46
2017-11-18T05:48:37.636Z,5.41
2017-11-18T05:49:46.538Z,5.43
2017-11-18T05:50:55.167Z,5.43
2017-11-18T05:52:03.788Z,5.43
2017-11-18T05:53:12.418Z,5.43
2017-11-18T05:54:21.038Z,5.52
2017-11-18T05:55:29.653Z,5.52
2017-11-18T05:56:38.551Z,5.43
2017-11-18T05:57:47.171Z,5.52
2017-11-18T05:58:55.792Z,5.47
2017-11-18T06:00:04.421Z,5.52
2017-11-18T06:01:13.073Z,5.47
2017-11-18T06:02:21.664Z,5.52
2017-11-18T06:03:30.569Z,5.52
2017-11-18T06:04:39.188Z,5.44
2017-11-18T06:05:47.815Z,5.47
2017-11-18T06:06:56.436Z,5.51
2017-11-18T06:08:05.075Z,5.52
2017-11-18T06:09:13.682Z,5.52
2017-11-18T06:10:22.577Z,5.54
2017-11-18T06:11:31.194Z,5.49
2017-11-18T06:12:39.821Z,5.49
2017-11-18T06:13:48.443Z,5.55
2017-11-18T06:14:57.065Z,5.58
2017-11-18T06:16:05.688Z,5.52
2017-11-18T06:17:14.312Z,5.58
2017-11-18T06:18:22.944Z,5.54
2017-11-18T06:19:31.569Z,5.49
2017-11-18T06:20:40.187Z,5.49
2017-11-18T06:21:48.829Z,5.51
2017-11-18T06:22:57.437Z,5.58
2017-11-18T06:24:06.058Z,5.55
2017-11-18T06:25:14.676Z,5.56
2017-11-18T06:26:23.301Z,5.59
2017-11-18T06:27:31.932Z,5.56
2017-11-18T06:28:40.555Z,5.56
2017-11-18T06:29:49.175Z,5.59
2017-11-18T06:30:58.069Z,5.61
2017-11-18T06:32:06.725Z,5.58
2017-11-18T06:33:15.310Z,5.61
2017-11-18T06:34:24.217Z,5.65
2017-11-18T06:35:32.836Z,5.59
2017-11-18T06:36:41.450Z,5.61
2017-11-18T06:37:50.080Z,5.64
2017-11-18T06:38:58.966Z,5.64
2017-11-18T06:40:07.596Z,5.64
2017-11-18T06:41:16.217Z,5.64
2017-11-18T06:42:24.832Z,5.69
2017-11-18T06:43:33.778Z,5.65
2017-11-18T06:44:42.347Z,5.69
2017-11-18T06:45:50.960Z,5.62
2017-11-18T06:46:59.585Z,5.65
2017-11-18T06:48:08.209Z,5.7
2017-11-18T06:49:16.843Z,5.72
2017-11-18T06:50:25.465Z,5.77
2017-11-18T06:51:34.086Z,5.76
2017-11-18T06:52:42.719Z,5.73
2017-11-18T06:53:51.605Z,5.79
2017-11-18T06:55:00.236Z,5.79
2017-11-18T06:56:08.864Z,5.74
2017-11-18T06:57:17.750Z,5.83
2017-11-18T06:58:26.386Z,5.79
2017-11-18T06:59:35.268Z,5.81
2017-11-18T07:00:43.889Z,5.84
2017-11-18T07:01:52.515Z,5.8
2017-11-18T07:03:01.136Z,5.83
2017-11-18T07:04:09.750Z,5.87
2017-11-18T07:05:18.376Z,5.77
2017-11-18T07:06:27.000Z,5.87
2017-11-18T07:07:35.618Z,5.94
2017-11-18T07:08:44.250Z,5.83
2017-11-18T07:09:52.871Z,5.9
2017-11-18T07:11:01.509Z,5.87
2017-11-18T07:12:10.137Z,5.88
2017-11-18T07:13:18.751Z,5.88
2017-11-18T07:14:27.378Z,5.9
2017-11-18T07:15:36.000Z,5.88
2017-11-18T07:16:44.629Z,5.84
2017-11-18T07:17:53.269Z,5.88
2017-11-18T07:19:01.876Z,5.88
2017-11-18T07:20:10.498Z,5.83
2017-11-18T07:21:19.127Z,5.84
2017-11-18T07:22:27.741Z,5.83
2017-11-18T07:23:36.368Z,5.87
2017-11-18T07:24:44.990Z,5.81
2017-11-18T07:25:53.622Z,5.87
2017-11-18T07:27:02.245Z,5.84
2017-11-18T07:28:10.866Z,5.8
2017-11-18T07:29:19.758Z,5.83
2017-11-18T07:30:28.383Z,5.92
2017-11-18T07:31:37.004Z,5.79
2017-11-18T07:32:45.636Z,5.88
2017-11-18T07:33:54.255Z,5.81
2017-11-18T07:35:02.870Z,5.9
2017-11-18T07:36:11.498Z,5.9
2017-11-18T07:37:20.120Z,5.87
2017-11-18T07:38:28.750Z,5.87
2017-11-18T07:39:37.376Z,5.84
2017-11-18T07:40:45.988Z,5.94
2017-11-18T07:41:54.641Z,5.84
2017-11-18T07:43:03.247Z,5.99
2017-11-18T07:44:11.867Z,6.01
2017-11-18T07:45:20.493Z,5.9
2017-11-18T07:46:29.120Z,5.99
2017-11-18T07:47:38.003Z,5.88
2017-11-18T07:48:46.626Z,5.98
2017-11-18T07:49:55.261Z,5.99
2017-11-18T07:51:03.888Z,5.9
2017-11-18T07:52:12.512Z,6.02
2017-11-18T07:53:21.133Z,5.99
2017-11-18T07:54:29.752Z,5.98
2017-11-18T07:55:38.379Z,5.97
2017-11-18T07:56:46.997Z,5.98
2017-11-18T07:57:55.620Z,5.95
2017-11-18T07:59:04.521Z,5.97
2017-11-18T08:00:13.144Z,5.94
2017-11-18T08:01:21.765Z,5.94
2017-11-18T08:02:30.396Z,5.98
2017-11-18T08:03:39.018Z,5.97
2017-11-18T08:04:47.638Z,6.01
2017-11-18T08:05:56.265Z,5.97
2017-11-18T08:07:05.148Z,6.06
2017-11-18T08:08:13.779Z,6.06
2017-11-18T08:09:22.411Z,5.99
2017-11-18T08:10:31.037Z,6.05
2017-11-18T08:11:39.661Z,6.02
2017-11-18T08:12:48.278Z,6.09
2017-11-18T08:13:56.898Z,6.1
2017-11-18T08:15:05.518Z,6.16
2017-11-18T08:16:14.139Z,6.09
2017-11-18T08:17:22.767Z,6.09
2017-11-18T08:18:31.389Z,6.12
2017-11-18T08:19:40.014Z,6.13
2017-11-18T08:20:48.647Z,6.07
2017-11-18T08:21:57.261Z,6.09
2017-11-18T08:23:05.889Z,6.09
2017-11-18T08:24:14.507Z,6.13
2017-11-18T08:25:23.129Z,6.26
2017-11-18T08:26:31.763Z,6.13
2017-11-18T08:27:40.389Z,6.15
2017-11-18T08:28:49.009Z,6.26
2017-11-18T08:29:57.640Z,6.13
2017-11-18T08:31:06.263Z,6.17
2017-11-18T08:32:14.884Z,6.26
2017-11-18T08:33:23.513Z,6.28
2017-11-18T08:34:32.133Z,6.29
2017-11-18T08:35:40.753Z,6.28
2017-11-18T08:36:49.380Z,6.29
2017-11-18T08:37:58.009Z,6.28
2017-11-18T08:39:06.907Z,6.32
2017-11-18T08:40:15.537Z,6.29
2017-11-18T08:41:24.149Z,6.32
2017-11-18T08:42:32.775Z,6.31
2017-11-18T08:43:41.396Z,6.36
2017-11-18T08:44:50.016Z,6.38
2017-11-18T08:45:58.644Z,6.35
2017-11-18T08:47:07.268Z,6.38
2017-11-18T08:48:15.885Z,6.39
2017-11-18T08:49:24.509Z,6.36
2017-11-18T08:50:33.140Z,6.46
2017-11-18T08:51:41.764Z,6.35
2017-11-18T08:52:50.390Z,6.5
2017-11-18T08:53:59.008Z,6.36
2017-11-18T08:55:07.634Z,6.44
2017-11-18T08:56:16.537Z,6.46
2017-11-18T08:57:25.144Z,6.32
2017-11-18T08:58:33.773Z,6.47
2017-11-18T08:59:42.398Z,6.44
2017-11-18T09:00:51.018Z,6.46
2017-11-18T09:01:59.639Z,6.44
2017-11-18T09:03:08.270Z,6.53
2017-11-18T09:04:17.170Z,6.52
2017-11-18T09:05:25.796Z,6.44
2017-11-18T09:06:34.413Z,6.54
2017-11-18T09:07:43.035Z,6.49
2017-11-18T09:08:51.670Z,6.53
2017-11-18T09:10:00.293Z,6.47
2017-11-18T09:11:08.917Z,6.54
2017-11-18T09:12:17.817Z,6.56
2017-11-18T09:13:26.441Z,6.53
2017-11-18T09:14:35.069Z,6.53
2017-11-18T09:15:43.687Z,6.53
2017-11-18T09:16:52.311Z,6.54
2017-11-18T09:18:00.940Z,6.57
2017-11-18T09:19:09.556Z,6.56
2017-11-18T09:20:18.188Z,6.65
2017-11-18T09:21:27.071Z,6.6
2017-11-18T09:22:35.700Z,6.67
2017-11-18T09:23:44.324Z,6.71
2017-11-18T09:24:52.938Z,6.64
2017-11-18T09:26:01.565Z,6.62
2017-11-18T09:27:10.191Z,6.68
2017-11-18T09:28:18.817Z,6.67
2017-11-18T09:29:27.439Z,6.62
2017-11-18T09:30:36.069Z,6.67
2017-11-18T09:31:44.693Z,6.62
2017-11-18T09:32:53.579Z,6.6
2017-11-18T09:34:02.211Z,6.74
2017-11-18T09:35:11.090Z,6.8
2017-11-18T09:36:19.719Z,6.67
2017-11-18T09:37:28.337Z,6.77
2017-11-18T09:38:36.990Z,6.67
2017-11-18T09:39:45.938Z,6.74
2017-11-18T09:40:54.553Z,6.72
2017-11-18T09:42:03.178Z,6.78
2017-11-18T09:43:11.805Z,6.77
2017-11-18T09:44:20.423Z,6.72
2017-11-18T09:45:29.051Z,6.72
2017-11-18T09:46:37.942Z,6.77
2017-11-18T09:47:46.573Z,6.72
2017-11-18T09:48:55.191Z,6.82
2017-11-18T09:50:03.820Z,6.83
2017-11-18T09:51:12.716Z,6.83
2017-11-18T09:52:21.348Z,6.86
2017-11-18T09:53:29.970Z,6.89
2017-11-18T09:54:39.125Z,6.93
2017-11-18T09:55:47.750Z,6.95
2017-11-18T09:56:56.375Z,6.87
2017-11-18T09:58:05.000Z,6.92
2017-11-18T09:59:13.893Z,7
2017-11-18T10:00:22.518Z,7.01
2017-11-18T10:01:31.136Z,7.05
2017-11-18T10:02:39.760Z,7.1
2017-11-18T10:03:48.389Z,7.04
2017-11-18T10:04:57.286Z,7.08
2017-11-18T10:06:05.913Z,7.07
2017-11-18T10:07:14.529Z,7.07
2017-11-18T10:08:23.160Z,7.08
2017-11-18T10:09:32.053Z,7.08
2017-11-18T10:10:40.670Z,7.08
2017-11-18T10:11:49.303Z,7.1
2017-11-18T10:12:57.926Z,7.23
2017-11-18T10:14:06.549Z,7.14
2017-11-18T10:15:15.177Z,7.15
2017-11-18T10:16:23.794Z,7.22
2017-11-18T10:17:32.433Z,7.15
2017-11-18T10:18:41.045Z,7.21
2017-11-18T10:19:49.677Z,7.13
2017-11-18T10:20:58.303Z,7.11
2017-11-18T10:22:06.924Z,7.18
2017-11-18T10:23:15.826Z,7.21
2017-11-18T10:24:24.459Z,7.18
2017-11-18T10:25:33.076Z,7.25
2017-11-18T10:26:41.708Z,7.23
2017-11-18T10:27:50.330Z,7.25
2017-11-18T10:28:58.952Z,7.26
2017-11-18T10:30:07.582Z,7.32
2017-11-18T10:31:16.205Z,7.36
2017-11-18T10:32:24.825Z,7.43
2017-11-18T10:33:33.459Z,7.44
2017-11-18T10:34:42.079Z,7.46
2017-11-18T10:35:50.706Z,7.43
2017-11-18T10:36:59.334Z,7.41
2017-11-18T10:38:07.955Z,7.44
2017-11-18T10:39:16.581Z,7.53
2017-11-18T10:40:25.208Z,7.48
2017-11-18T10:41:33.832Z,7.46
2017-11-18T10:42:42.477Z,7.55
2017-11-18T10:43:51.082Z,7.5
2017-11-18T10:44:59.715Z,7.48
2017-11-18T10:46:08.335Z,7.46
2017-11-18T10:47:16.954Z,7.5
2017-11-18T10:48:25.588Z,7.47
2017-11-18T10:49:34.207Z,7.44
2017-11-18T10:50:42.836Z,7.55
2017-11-18T10:51:51.464Z,7.53
2017-11-18T10:53:00.087Z,7.59
2017-11-18T10:54:08.709Z,7.77
2017-11-18T10:55:17.336Z,7.69
2017-11-18T10:56:25.957Z,7.8
2017-11-18T10:57:34.582Z,7.75
2017-11-18T10:58:43.211Z,7.75
2017-11-18T10:59:51.833Z,7.74
2017-11-18T11:01:00.456Z,7.78
2017-11-18T11:02:09.087Z,7.7
2017-11-18T11:03:17.712Z,7.75
2017-11-18T11:04:26.340Z,7.67
2017-11-18T11:05:34.954Z,7.69
2017-11-18T11:06:43.579Z,7.7
2017-11-18T11:07:52.210Z,7.72
2017-11-18T11:09:00.838Z,7.67
2017-11-18T11:10:09.464Z,7.78
2017-11-18T11:11:18.352Z,7.72
2017-11-18T11:12:26.978Z,7.75
2017-11-18T11:13:35.610Z,7.83
2017-11-18T11:14:44.229Z,7.7
2017-11-18T11:15:52.853Z,7.74
2017-11-18T11:17:01.483Z,7.75
2017-11-18T11:18:10.416Z,7.7
2017-11-18T11:19:19.041Z,7.8
2017-11-18T11:20:27.658Z,7.78
2017-11-18T11:21:36.284Z,7.77
2017-11-18T11:22:44.917Z,7.74
2017-11-18T11:23:53.536Z,7.69
2017-11-18T11:25:02.162Z,7.66
2017-11-18T11:26:10.790Z,7.66
2017-11-18T11:27:19.680Z,7.59
2017-11-18T11:28:28.575Z,7.61
2017-11-18T11:29:37.208Z,7.59
2017-11-18T11:30:45.832Z,7.51
2017-11-18T11:31:54.458Z,7.64
2017-11-18T11:33:03.080Z,7.7
2017-11-18T11:34:11.965Z,7.64
2017-11-18T11:35:20.608Z,7.7
2017-11-18T11:36:29.493Z,7.72
2017-11-18T11:37:38.117Z,7.67
2017-11-18T11:38:46.748Z,7.75
2017-11-18T11:39:55.372Z,7.77
2017-11-18T11:41:03.992Z,7.8
2017-11-18T11:42:12.618Z,7.91
2017-11-18T11:43:21.240Z,7.99
2017-11-18T11:44:29.863Z,8.14
2017-11-18T11:45:38.494Z,8.18
2017-11-18T11:46:47.113Z,8.28
2017-11-18T11:47:55.742Z,8.45
2017-11-18T11:49:04.368Z,8.57
2017-11-18T11:50:12.990Z,8.6
2017-11-18T11:51:21.620Z,8.74
2017-11-18T11:52:30.246Z,8.79
2017-11-18T11:53:38.870Z,8.78
2017-11-18T11:54:47.499Z,8.78
2017-11-18T11:55:56.133Z,8.71
2017-11-18T11:57:04.759Z,8.57
2017-11-18T11:58:13.647Z,8.56
2017-11-18T11:59:22.275Z,8.45
2017-11-18T12:00:30.891Z,8.52
2017-11-18T12:01:39.529Z,8.45
2017-11-18T12:02:48.148Z,8.44
2017-11-18T12:03:56.775Z,8.42
2017-11-18T12:05:05.407Z,8.41
2017-11-18T12:06:14.025Z,8.32
2017-11-18T12:07:22.653Z,8.21
2017-11-18T12:08:31.278Z,8.16
2017-11-18T12:09:39.914Z,8.05
2017-11-18T12:10:48.534Z,8.02
2017-11-18T12:11:57.426Z,8.01
2017-11-18T12:13:06.053Z,8.02
2017-11-18T12:14:14.684Z,7.87
2017-11-18T12:15:23.305Z,7.78
2017-11-18T12:16:31.933Z,7.78
2017-11-18T12:17:40.550Z,7.72
2017-11-18T12:18:49.192Z,7.77
2017-11-18T12:19:57.806Z,7.72
2017-11-18T12:21:06.432Z,7.66
2017-11-18T12:22:15.340Z,7.64
2017-11-18T12:23:24.242Z,7.58
2017-11-18T12:24:32.869Z,7.55
2017-11-18T12:25:41.495Z,7.44
2017-11-18T12:26:50.123Z,7.43
2017-11-18T12:27:58.741Z,7.47
2017-11-18T12:29:07.368Z,7.5
2017-11-18T12:30:15.996Z,7.46
2017-11-18T12:31:24.629Z,7.53
2017-11-18T12:32:33.255Z,7.44
2017-11-18T12:33:42.147Z,7.47
2017-11-18T12:34:50.772Z,7.43
2017-11-18T12:35:59.428Z,7.39
2017-11-18T12:37:08.020Z,7.44
2017-11-18T12:38:16.919Z,7.5
2017-11-18T12:39:25.545Z,7.51
2017-11-18T12:40:34.168Z,7.51
2017-11-18T12:41:42.792Z,7.59
2017-11-18T12:42:51.423Z,7.56
2017-11-18T12:44:00.046Z,7.56
2017-11-18T12:45:08.688Z,7.58
2017-11-18T12:46:17.294Z,7.74
2017-11-18T12:47:26.205Z,7.67
2017-11-18T12:48:34.834Z,7.72
2017-11-18T12:49:43.460Z,7.72
2017-11-18T12:50:52.079Z,7.77
2017-11-18T12:52:00.711Z,7.74
2017-11-18T12:53:09.341Z,7.69
2017-11-18T12:54:17.963Z,7.74
2017-11-18T12:55:26.596Z,7.67
2017-11-18T12:56:35.224Z,7.7
2017-11-18T12:57:43.842Z,7.77
2017-11-18T12:58:52.470Z,7.75
2017-11-18T13:00:01.090Z,7.67
2017-11-18T13:01:09.722Z,7.66
2017-11-18T13:02:18.343Z,7.56
2017-11-18T13:03:26.969Z,7.41
2017-11-18T13:04:35.603Z,7.48
2017-11-18T13:05:44.224Z,7.4
2017-11-18T13:06:53.118Z,7.37
2017-11-18T13:08:01.738Z,7.33
2017-11-18T13:09:10.357Z,7.18
2017-11-18T13:10:18.987Z,7.19
2017-11-18T13:11:27.887Z,7.11
2017-11-18T13:12:36.501Z,7.19
2017-11-18T13:13:45.134Z,7.07
2017-11-18T13:14:53.753Z,7.1
2017-11-18T13:16:02.381Z,7.05
2017-11-18T13:17:11.006Z,7.01
2017-11-18T13:18:19.630Z,7.07
2017-11-18T13:19:28.260Z,6.9
2017-11-18T13:20:36.881Z,6.9
2017-11-18T13:21:45.508Z,6.89
2017-11-18T13:22:54.140Z,7.01
2017-11-18T13:24:02.761Z,7.05
2017-11-18T13:25:11.383Z,7.13
2017-11-18T13:26:20.011Z,7.14
2017-11-18T13:27:28.639Z,7.28
2017-11-18T13:28:37.258Z,7.28
2017-11-18T13:29:45.889Z,7.32
2017-11-18T13:30:54.508Z,7.5
2017-11-18T13:32:03.138Z,7.46
2017-11-18T13:33:11.783Z,7.46
2017-11-18T13:34:20.392Z,7.41
2017-11-18T13:35:29.019Z,7.44
2017-11-18T13:36:37.645Z,7.55
2017-11-18T13:37:46.263Z,7.51
2017-11-18T13:38:54.894Z,7.64
2017-11-18T13:40:03.519Z,7.61
2017-11-18T13:41:12.142Z,7.78
2017-11-18T13:42:20.784Z,7.66
2017-11-18T13:43:29.400Z,7.75
2017-11-18T13:44:38.028Z,7.74
2017-11-18T13:45:46.655Z,7.75
2017-11-18T13:46:55.269Z,7.67
2017-11-18T13:48:04.170Z,7.64
2017-11-18T13:49:13.063Z,7.66
2017-11-18T13:50:21.948Z,7.59
2017-11-18T13:51:30.573Z,7.56
2017-11-18T13:52:39.198Z,7.61
2017-11-18T13:53:47.822Z,7.58
2017-11-18T13:54:56.443Z,7.53
2017-11-18T13:56:05.084Z,7.53
2017-11-18T13:57:13.695Z,7.55
2017-11-18T13:58:22.596Z,7.58
2017-11-18T13:59:31.211Z,7.61
2017-11-18T14:00:39.843Z,7.44
2017-11-18T14:01:48.471Z,7.46
2017-11-18T14:02:57.091Z,7.5
2017-11-18T14:04:05.717Z,7.44
2017-11-18T14:05:14.348Z,7.44
2017-11-18T14:06:22.977Z,7.46
2017-11-18T14:07:31.872Z,7.47
2017-11-18T14:08:40.493Z,7.43
2017-11-18T14:09:49.113Z,7.4
2017-11-18T14:10:57.741Z,7.25
2017-11-18T14:12:06.369Z,7.31
2017-11-18T14:13:15.004Z,7.25
2017-11-18T14:14:23.887Z,7.23
2017-11-18T14:15:32.513Z,7.21
2017-11-18T14:16:41.145Z,7.18
2017-11-18T14:17:49.765Z,7.07
2017-11-18T14:18:58.394Z,6.95
2017-11-18T14:20:07.025Z,6.7
2017-11-18T14:21:15.643Z,6.7
2017-11-18T14:22:24.260Z,6.57
2017-11-18T14:23:32.894Z,6.44
2017-11-18T14:24:41.777Z,6.39
2017-11-18T14:25:50.398Z,6.35
2017-11-18T14:26:59.027Z,6.25
2017-11-18T14:28:07.643Z,6.16
2017-11-18T14:29:16.273Z,6.07
2017-11-18T14:30:24.893Z,5.99
2017-11-18T14:31:33.516Z,5.98
2017-11-18T14:32:42.674Z,6.01
2017-11-18T14:33:51.296Z,5.9
2017-11-18T14:34:59.924Z,5.79
2017-11-18T14:36:08.543Z,5.79
2017-11-18T14:37:17.167Z,5.77
2017-11-18T14:38:25.794Z,5.59
2017-11-18T14:39:34.416Z,5.87
2017-11-18T14:40:43.037Z,5.95
2017-11-18T14:41:51.668Z,5.83
2017-11-18T14:43:00.289Z,5.88
2017-11-18T14:44:09.186Z,5.95
2017-11-18T14:45:17.805Z,6.12
2017-11-18T14:46:26.439Z,6.06
2017-11-18T14:47:35.060Z,6.12
2017-11-18T14:48:43.683Z,6.12
2017-11-18T14:49:52.307Z,6.06
2017-11-18T14:51:01.207Z,6.05
2017-11-18T14:52:09.831Z,5.81
2017-11-18T14:53:18.448Z,5.73
2017-11-18T14:54:27.091Z,5.59
2017-11-18T14:55:35.705Z,5.64
2017-11-18T14:56:44.333Z,5.55
2017-11-18T14:57:52.953Z,5.64
2017-11-18T14:59:01.575Z,5.61
2017-11-18T15:00:10.205Z,5.61
2017-11-18T15:01:18.827Z,5.64
2017-11-18T15:02:27.448Z,5.56
2017-11-18T15:03:36.079Z,5.62
2017-11-18T15:04:44.698Z,5.7
2017-11-18T15:05:53.321Z,5.69
2017-11-18T15:07:01.943Z,5.62
2017-11-18T15:08:10.563Z,5.61
2017-11-18T15:09:19.463Z,5.69
2017-11-18T15:10:28.084Z,5.58
2017-11-18T15:11:36.736Z,5.55
2017-11-18T15:12:45.331Z,5.58
2017-11-18T15:13:53.962Z,5.55
2017-11-18T15:15:02.584Z,5.58
2017-11-18T15:16:11.206Z,5.58